sensor_id;sensor_type;location;lat;lon;timestamp;P1;durP1;ratioP1;P2;durP2;ratioP2
75620;SDS011;64574;48.506;-2.750;2024-02-26T00:01:40;3.60;;;1.30;;
75620;SDS011;64574;48.506;-2.750;2024-02-26T00:04:06;5.30;;;1.75;;
75620;SDS011;64574;48.506;-2.750;2024-02-26T00:06:31;4.15;;;1.80;;
75620;SDS011;64574;48.506;-2.750;2024-02-26T00:08:57;3.30;;;1.70;;
75620;SDS011;64574;48.506;-2.750;2024-02-26T00:11:23;4.40;;;1.73;;
75620;SDS011;64574;48.506;-2.750;2024-02-26T00:13:49;5.57;;;1.93;;
75620;SDS011;64574;48.506;-2.750;2024-02-26T00:16:14;4.28;;;1.70;;
75620;SDS011;64574;48.506;-2.750;2024-02-26T00:18:40;4.90;;;1.60;;
75620;SDS011;64574;48.506;-2.750;2024-02-26T00:21:06;3.10;;;1.60;;
75620;SDS011;64574;48.506;-2.750;2024-02-26T00:23:31;3.63;;;1.80;;
75620;SDS011;64574;48.506;-2.750;2024-02-26T00:25:57;4.68;;;2.17;;
75620;SDS011;64574;48.506;-2.750;2024-02-26T00:28:23;5.10;;;1.87;;
75620;SDS011;64574;48.506;-2.750;2024-02-26T00:30:49;3.83;;;1.70;;
75620;SDS011;64574;48.506;-2.750;2024-02-26T00:33:20;4.28;;;1.85;;
75620;SDS011;64574;48.506;-2.750;2024-02-26T00:35:47;3.35;;;1.40;;
75620;SDS011;64574;48.506;-2.750;2024-02-26T00:38:12;4.32;;;1.60;;
75620;SDS011;64574;48.506;-2.750;2024-02-26T00:40:38;2.97;;;1.30;;
75620;SDS011;64574;48.506;-2.750;2024-02-26T00:43:04;3.67;;;1.40;;
75620;SDS011;64574;48.506;-2.750;2024-02-26T00:45:30;3.77;;;1.30;;
75620;SDS011;64574;48.506;-2.750;2024-02-26T00:47:57;3.75;;;1.33;;
75620;SDS011;64574;48.506;-2.750;2024-02-26T00:50:23;5.03;;;1.58;;
75620;SDS011;64574;48.506;-2.750;2024-02-26T00:52:49;4.32;;;1.65;;
75620;SDS011;64574;48.506;-2.750;2024-02-26T00:55:14;3.78;;;1.50;;
75620;SDS011;64574;48.506;-2.750;2024-02-26T00:57:40;3.20;;;1.40;;
75620;SDS011;64574;48.506;-2.750;2024-02-26T01:00:06;4.28;;;1.55;;
75620;SDS011;64574;48.506;-2.750;2024-02-26T01:02:34;4.40;;;1.48;;
75620;SDS011;64574;48.506;-2.750;2024-02-26T01:04:59;4.37;;;1.60;;
75620;SDS011;64574;48.506;-2.750;2024-02-26T01:07:25;3.13;;;1.40;;
75620;SDS011;64574;48.506;-2.750;2024-02-26T01:09:51;3.47;;;1.40;;
75620;SDS011;64574;48.506;-2.750;2024-02-26T01:12:16;3.67;;;1.10;;
75620;SDS011;64574;48.506;-2.750;2024-02-26T01:14:42;3.33;;;1.00;;
75620;SDS011;64574;48.506;-2.750;2024-02-26T01:17:08;3.90;;;0.90;;
75620;SDS011;64574;48.506;-2.750;2024-02-26T01:19:33;4.30;;;0.90;;
75620;SDS011;64574;48.506;-2.750;2024-02-26T01:21:59;4.53;;;0.70;;
75620;SDS011;64574;48.506;-2.750;2024-02-26T01:24:25;3.30;;;0.65;;
75620;SDS011;64574;48.506;-2.750;2024-02-26T01:26:51;4.25;;;0.50;;
75620;SDS011;64574;48.506;-2.750;2024-02-26T01:29:16;4.27;;;0.70;;
75620;SDS011;64574;48.506;-2.750;2024-02-26T01:31:42;5.20;;;0.77;;
75620;SDS011;64574;48.506;-2.750;2024-02-26T01:34:07;3.63;;;0.70;;
75620;SDS011;64574;48.506;-2.750;2024-02-26T01:36:33;5.73;;;1.00;;
75620;SDS011;64574;48.506;-2.750;2024-02-26T01:38:59;5.40;;;0.70;;
75620;SDS011;64574;48.506;-2.750;2024-02-26T01:41:25;7.18;;;0.80;;
75620;SDS011;64574;48.506;-2.750;2024-02-26T01:43:50;5.67;;;0.90;;
75620;SDS011;64574;48.506;-2.750;2024-02-26T01:46:16;5.72;;;0.82;;
75620;SDS011;64574;48.506;-2.750;2024-02-26T01:48:43;4.20;;;0.65;;
75620;SDS011;64574;48.506;-2.750;2024-02-26T01:51:11;6.03;;;0.90;;
75620;SDS011;64574;48.506;-2.750;2024-02-26T01:53:39;4.68;;;0.90;;
75620;SDS011;64574;48.506;-2.750;2024-02-26T01:56:05;5.65;;;0.70;;
75620;SDS011;64574;48.506;-2.750;2024-02-26T01:58:32;7.22;;;0.90;;
75620;SDS011;64574;48.506;-2.750;2024-02-26T02:00:59;4.93;;;0.87;;
75620;SDS011;64574;48.506;-2.750;2024-02-26T02:03:28;5.40;;;0.80;;
75620;SDS011;64574;48.506;-2.750;2024-02-26T02:05:55;4.40;;;0.83;;
75620;SDS011;64574;48.506;-2.750;2024-02-26T02:08:20;5.70;;;0.93;;
75620;SDS011;64574;48.506;-2.750;2024-02-26T02:10:48;6.78;;;1.00;;
75620;SDS011;64574;48.506;-2.750;2024-02-26T02:13:14;6.55;;;0.90;;
75620;SDS011;64574;48.506;-2.750;2024-02-26T02:15:40;7.80;;;1.10;;
75620;SDS011;64574;48.506;-2.750;2024-02-26T02:18:06;8.27;;;1.20;;
75620;SDS011;64574;48.506;-2.750;2024-02-26T02:20:35;5.88;;;0.90;;
75620;SDS011;64574;48.506;-2.750;2024-02-26T02:23:01;7.53;;;1.20;;
75620;SDS011;64574;48.506;-2.750;2024-02-26T02:25:27;6.93;;;1.05;;
75620;SDS011;64574;48.506;-2.750;2024-02-26T02:27:54;8.40;;;1.20;;
75620;SDS011;64574;48.506;-2.750;2024-02-26T02:30:24;8.75;;;1.38;;
75620;SDS011;64574;48.506;-2.750;2024-02-26T02:32:52;8.13;;;1.40;;
75620;SDS011;64574;48.506;-2.750;2024-02-26T02:35:18;8.10;;;1.15;;
75620;SDS011;64574;48.506;-2.750;2024-02-26T02:37:44;8.25;;;1.33;;
75620;SDS011;64574;48.506;-2.750;2024-02-26T02:40:10;13.25;;;1.73;;
75620;SDS011;64574;48.506;-2.750;2024-02-26T02:42:35;11.60;;;1.67;;
75620;SDS011;64574;48.506;-2.750;2024-02-26T02:45:01;14.10;;;2.13;;
75620;SDS011;64574;48.506;-2.750;2024-02-26T02:47:27;10.73;;;1.42;;
75620;SDS011;64574;48.506;-2.750;2024-02-26T02:49:52;17.13;;;2.50;;
75620;SDS011;64574;48.506;-2.750;2024-02-26T02:52:18;9.65;;;1.63;;
75620;SDS011;64574;48.506;-2.750;2024-02-26T02:54:44;8.83;;;1.50;;
75620;SDS011;64574;48.506;-2.750;2024-02-26T02:57:10;8.27;;;1.77;;
75620;SDS011;64574;48.506;-2.750;2024-02-26T02:59:36;10.27;;;1.60;;
75620;SDS011;64574;48.506;-2.750;2024-02-26T03:02:02;13.10;;;1.80;;
75620;SDS011;64574;48.506;-2.750;2024-02-26T03:04:28;11.25;;;1.63;;
75620;SDS011;64574;48.506;-2.750;2024-02-26T03:06:54;9.63;;;1.35;;
75620;SDS011;64574;48.506;-2.750;2024-02-26T03:09:20;7.90;;;1.70;;
75620;SDS011;64574;48.506;-2.750;2024-02-26T03:11:46;8.27;;;1.00;;
75620;SDS011;64574;48.506;-2.750;2024-02-26T03:14:11;10.25;;;1.30;;
75620;SDS011;64574;48.506;-2.750;2024-02-26T03:16:37;9.63;;;1.20;;
75620;SDS011;64574;48.506;-2.750;2024-02-26T03:19:03;8.07;;;1.37;;
75620;SDS011;64574;48.506;-2.750;2024-02-26T03:21:28;8.20;;;1.00;;
75620;SDS011;64574;48.506;-2.750;2024-02-26T03:23:54;10.55;;;1.60;;
75620;SDS011;64574;48.506;-2.750;2024-02-26T03:26:20;7.65;;;1.20;;
75620;SDS011;64574;48.506;-2.750;2024-02-26T03:28:46;7.47;;;1.13;;
75620;SDS011;64574;48.506;-2.750;2024-02-26T03:31:12;10.85;;;1.67;;
75620;SDS011;64574;48.506;-2.750;2024-02-26T03:33:38;8.03;;;1.40;;
75620;SDS011;64574;48.506;-2.750;2024-02-26T03:36:04;8.03;;;1.40;;
75620;SDS011;64574;48.506;-2.750;2024-02-26T03:38:30;10.02;;;1.40;;
75620;SDS011;64574;48.506;-2.750;2024-02-26T03:40:55;8.50;;;1.35;;
75620;SDS011;64574;48.506;-2.750;2024-02-26T03:43:21;10.60;;;1.52;;
75620;SDS011;64574;48.506;-2.750;2024-02-26T03:45:47;9.67;;;1.63;;
75620;SDS011;64574;48.506;-2.750;2024-02-26T03:48:12;8.20;;;1.40;;
75620;SDS011;64574;48.506;-2.750;2024-02-26T03:50:38;5.03;;;1.00;;
75620;SDS011;64574;48.506;-2.750;2024-02-26T03:53:04;5.40;;;1.10;;
75620;SDS011;64574;48.506;-2.750;2024-02-26T03:55:30;7.60;;;1.20;;
75620;SDS011;64574;48.506;-2.750;2024-02-26T03:57:57;5.15;;;1.13;;
75620;SDS011;64574;48.506;-2.750;2024-02-26T04:00:22;7.32;;;1.20;;
75620;SDS011;64574;48.506;-2.750;2024-02-26T04:02:48;7.65;;;1.35;;
75620;SDS011;64574;48.506;-2.750;2024-02-26T04:05:14;8.05;;;1.15;;
75620;SDS011;64574;48.506;-2.750;2024-02-26T04:07:40;6.03;;;1.00;;
75620;SDS011;64574;48.506;-2.750;2024-02-26T04:10:12;9.17;;;1.23;;
75620;SDS011;64574;48.506;-2.750;2024-02-26T04:12:38;12.43;;;1.53;;
75620;SDS011;64574;48.506;-2.750;2024-02-26T04:15:08;11.00;;;1.67;;
75620;SDS011;64574;48.506;-2.750;2024-02-26T04:17:35;13.50;;;1.75;;
75620;SDS011;64574;48.506;-2.750;2024-02-26T04:20:02;11.85;;;1.90;;
75620;SDS011;64574;48.506;-2.750;2024-02-26T04:22:30;11.83;;;2.00;;
75620;SDS011;64574;48.506;-2.750;2024-02-26T04:24:57;12.75;;;1.95;;
75620;SDS011;64574;48.506;-2.750;2024-02-26T04:27:22;10.10;;;1.73;;
75620;SDS011;64574;48.506;-2.750;2024-02-26T04:29:48;11.30;;;1.80;;
75620;SDS011;64574;48.506;-2.750;2024-02-26T04:32:13;17.30;;;2.23;;
75620;SDS011;64574;48.506;-2.750;2024-02-26T04:34:39;13.45;;;2.15;;
75620;SDS011;64574;48.506;-2.750;2024-02-26T04:37:05;13.97;;;2.07;;
75620;SDS011;64574;48.506;-2.750;2024-02-26T04:39:30;14.95;;;2.25;;
75620;SDS011;64574;48.506;-2.750;2024-02-26T04:41:56;14.20;;;2.17;;
75620;SDS011;64574;48.506;-2.750;2024-02-26T04:44:22;8.13;;;1.37;;
75620;SDS011;64574;48.506;-2.750;2024-02-26T04:46:47;9.32;;;1.67;;
75620;SDS011;64574;48.506;-2.750;2024-02-26T04:49:13;8.63;;;1.40;;
75620;SDS011;64574;48.506;-2.750;2024-02-26T04:51:39;9.83;;;1.67;;
75620;SDS011;64574;48.506;-2.750;2024-02-26T04:54:04;9.68;;;1.50;;
75620;SDS011;64574;48.506;-2.750;2024-02-26T04:56:30;12.60;;;2.00;;
75620;SDS011;64574;48.506;-2.750;2024-02-26T04:58:55;10.77;;;2.00;;
75620;SDS011;64574;48.506;-2.750;2024-02-26T05:01:21;9.95;;;1.35;;
75620;SDS011;64574;48.506;-2.750;2024-02-26T05:03:47;8.70;;;1.47;;
75620;SDS011;64574;48.506;-2.750;2024-02-26T05:06:13;11.97;;;1.70;;
75620;SDS011;64574;48.506;-2.750;2024-02-26T05:08:39;9.80;;;1.75;;
75620;SDS011;64574;48.506;-2.750;2024-02-26T05:11:04;11.85;;;1.90;;
75620;SDS011;64574;48.506;-2.750;2024-02-26T05:13:31;9.57;;;1.92;;
75620;SDS011;64574;48.506;-2.750;2024-02-26T05:15:56;10.45;;;1.65;;
75620;SDS011;64574;48.506;-2.750;2024-02-26T05:18:22;9.00;;;1.60;;
75620;SDS011;64574;48.506;-2.750;2024-02-26T05:20:49;9.85;;;1.70;;
75620;SDS011;64574;48.506;-2.750;2024-02-26T05:23:14;11.45;;;1.80;;
75620;SDS011;64574;48.506;-2.750;2024-02-26T05:25:40;12.97;;;2.00;;
75620;SDS011;64574;48.506;-2.750;2024-02-26T05:28:06;15.35;;;1.90;;
75620;SDS011;64574;48.506;-2.750;2024-02-26T05:30:32;7.43;;;1.50;;
75620;SDS011;64574;48.506;-2.750;2024-02-26T05:32:57;11.87;;;1.90;;
75620;SDS011;64574;48.506;-2.750;2024-02-26T05:37:50;10.70;;;1.67;;
75620;SDS011;64574;48.506;-2.750;2024-02-26T05:40:16;12.13;;;1.63;;
75620;SDS011;64574;48.506;-2.750;2024-02-26T05:42:42;10.23;;;1.42;;
75620;SDS011;64574;48.506;-2.750;2024-02-26T05:47:35;8.10;;;1.40;;
75620;SDS011;64574;48.506;-2.750;2024-02-26T05:50:07;10.05;;;1.80;;
75620;SDS011;64574;48.506;-2.750;2024-02-26T05:52:36;9.13;;;2.58;;
75620;SDS011;64574;48.506;-2.750;2024-02-26T05:55:05;10.88;;;1.63;;
75620;SDS011;64574;48.506;-2.750;2024-02-26T05:57:32;8.45;;;1.33;;
75620;SDS011;64574;48.506;-2.750;2024-02-26T06:00:01;9.32;;;1.67;;
75620;SDS011;64574;48.506;-2.750;2024-02-26T06:02:32;8.82;;;1.77;;
75620;SDS011;64574;48.506;-2.750;2024-02-26T06:04:58;15.23;;;1.90;;
75620;SDS011;64574;48.506;-2.750;2024-02-26T06:07:24;11.48;;;2.13;;
75620;SDS011;64574;48.506;-2.750;2024-02-26T06:09:50;15.88;;;2.42;;
75620;SDS011;64574;48.506;-2.750;2024-02-26T06:12:15;12.13;;;2.80;;
75620;SDS011;64574;48.506;-2.750;2024-02-26T06:14:44;11.55;;;2.17;;
75620;SDS011;64574;48.506;-2.750;2024-02-26T06:17:10;7.65;;;1.90;;
75620;SDS011;64574;48.506;-2.750;2024-02-26T06:19:35;11.25;;;2.38;;
75620;SDS011;64574;48.506;-2.750;2024-02-26T06:22:01;14.05;;;2.83;;
75620;SDS011;64574;48.506;-2.750;2024-02-26T06:24:26;9.25;;;2.88;;
75620;SDS011;64574;48.506;-2.750;2024-02-26T06:26:52;11.50;;;2.25;;
75620;SDS011;64574;48.506;-2.750;2024-02-26T06:29:18;13.75;;;2.60;;
75620;SDS011;64574;48.506;-2.750;2024-02-26T06:31:43;13.48;;;2.50;;
75620;SDS011;64574;48.506;-2.750;2024-02-26T06:34:09;13.18;;;2.70;;
75620;SDS011;64574;48.506;-2.750;2024-02-26T06:36:36;14.95;;;3.10;;
75620;SDS011;64574;48.506;-2.750;2024-02-26T06:39:02;17.95;;;2.63;;
75620;SDS011;64574;48.506;-2.750;2024-02-26T06:41:27;14.90;;;3.28;;
75620;SDS011;64574;48.506;-2.750;2024-02-26T06:43:54;17.85;;;2.95;;
75620;SDS011;64574;48.506;-2.750;2024-02-26T06:46:20;14.73;;;2.17;;
75620;SDS011;64574;48.506;-2.750;2024-02-26T06:48:47;12.18;;;2.38;;
75620;SDS011;64574;48.506;-2.750;2024-02-26T06:51:13;9.50;;;2.47;;
75620;SDS011;64574;48.506;-2.750;2024-02-26T06:56:05;13.07;;;2.25;;
75620;SDS011;64574;48.506;-2.750;2024-02-26T06:58:31;18.75;;;3.35;;
75620;SDS011;64574;48.506;-2.750;2024-02-26T07:00:56;14.65;;;2.85;;
75620;SDS011;64574;48.506;-2.750;2024-02-26T07:03:22;11.10;;;1.95;;
75620;SDS011;64574;48.506;-2.750;2024-02-26T07:05:49;16.77;;;4.38;;
75620;SDS011;64574;48.506;-2.750;2024-02-26T07:08:15;22.08;;;2.88;;
75620;SDS011;64574;48.506;-2.750;2024-02-26T07:10:41;18.27;;;3.92;;
75620;SDS011;64574;48.506;-2.750;2024-02-26T07:13:07;14.40;;;2.33;;
75620;SDS011;64574;48.506;-2.750;2024-02-26T07:15:32;11.75;;;2.70;;
75620;SDS011;64574;48.506;-2.750;2024-02-26T07:17:58;19.13;;;3.73;;
75620;SDS011;64574;48.506;-2.750;2024-02-26T07:20:28;23.95;;;4.00;;
75620;SDS011;64574;48.506;-2.750;2024-02-26T07:22:56;14.93;;;2.85;;
75620;SDS011;64574;48.506;-2.750;2024-02-26T07:25:22;20.67;;;3.88;;
75620;SDS011;64574;48.506;-2.750;2024-02-26T07:27:49;14.45;;;3.15;;
75620;SDS011;64574;48.506;-2.750;2024-02-26T07:30:15;18.80;;;3.10;;
75620;SDS011;64574;48.506;-2.750;2024-02-26T07:32:42;14.80;;;3.20;;
75620;SDS011;64574;48.506;-2.750;2024-02-26T07:35:08;19.10;;;3.00;;
75620;SDS011;64574;48.506;-2.750;2024-02-26T07:37:33;14.00;;;2.33;;
75620;SDS011;64574;48.506;-2.750;2024-02-26T07:39:59;20.10;;;3.17;;
75620;SDS011;64574;48.506;-2.750;2024-02-26T07:42:25;18.88;;;3.30;;
75620;SDS011;64574;48.506;-2.750;2024-02-26T07:44:51;13.05;;;2.53;;
75620;SDS011;64574;48.506;-2.750;2024-02-26T07:47:18;17.25;;;3.25;;
75620;SDS011;64574;48.506;-2.750;2024-02-26T07:49:44;10.95;;;2.35;;
75620;SDS011;64574;48.506;-2.750;2024-02-26T07:54:35;12.18;;;2.80;;
75620;SDS011;64574;48.506;-2.750;2024-02-26T07:57:01;15.55;;;2.47;;
75620;SDS011;64574;48.506;-2.750;2024-02-26T07:59:30;10.40;;;2.35;;
75620;SDS011;64574;48.506;-2.750;2024-02-26T08:01:56;15.05;;;2.58;;
75620;SDS011;64574;48.506;-2.750;2024-02-26T08:04:22;16.63;;;2.92;;
75620;SDS011;64574;48.506;-2.750;2024-02-26T08:06:48;18.83;;;3.38;;
75620;SDS011;64574;48.506;-2.750;2024-02-26T08:09:13;17.92;;;3.13;;
75620;SDS011;64574;48.506;-2.750;2024-02-26T08:11:39;13.38;;;2.58;;
75620;SDS011;64574;48.506;-2.750;2024-02-26T08:14:05;22.67;;;3.22;;
75620;SDS011;64574;48.506;-2.750;2024-02-26T08:16:30;19.60;;;4.03;;
75620;SDS011;64574;48.506;-2.750;2024-02-26T08:18:56;13.52;;;2.92;;
75620;SDS011;64574;48.506;-2.750;2024-02-26T08:21:21;18.38;;;2.90;;
75620;SDS011;64574;48.506;-2.750;2024-02-26T08:23:48;10.63;;;2.65;;
75620;SDS011;64574;48.506;-2.750;2024-02-26T08:26:13;20.75;;;3.20;;
75620;SDS011;64574;48.506;-2.750;2024-02-26T08:31:05;15.20;;;2.33;;
75620;SDS011;64574;48.506;-2.750;2024-02-26T08:33:30;14.05;;;2.50;;
75620;SDS011;64574;48.506;-2.750;2024-02-26T08:35:56;16.92;;;2.83;;
75620;SDS011;64574;48.506;-2.750;2024-02-26T08:38:22;15.07;;;2.75;;
75620;SDS011;64574;48.506;-2.750;2024-02-26T08:40:48;20.48;;;2.72;;
75620;SDS011;64574;48.506;-2.750;2024-02-26T08:43:14;14.00;;;2.72;;
75620;SDS011;64574;48.506;-2.750;2024-02-26T08:45:40;16.23;;;2.88;;
75620;SDS011;64574;48.506;-2.750;2024-02-26T08:48:05;11.00;;;2.35;;
75620;SDS011;64574;48.506;-2.750;2024-02-26T08:50:32;18.13;;;3.05;;
75620;SDS011;64574;48.506;-2.750;2024-02-26T08:52:58;13.65;;;2.72;;
75620;SDS011;64574;48.506;-2.750;2024-02-26T08:55:26;17.40;;;3.33;;
75620;SDS011;64574;48.506;-2.750;2024-02-26T08:57:51;10.15;;;3.00;;
75620;SDS011;64574;48.506;-2.750;2024-02-26T09:00:17;17.75;;;3.03;;
75620;SDS011;64574;48.506;-2.750;2024-02-26T09:02:45;14.52;;;2.80;;
75620;SDS011;64574;48.506;-2.750;2024-02-26T09:05:14;16.02;;;3.17;;
75620;SDS011;64574;48.506;-2.750;2024-02-26T09:07:41;13.40;;;2.58;;
75620;SDS011;64574;48.506;-2.750;2024-02-26T09:10:06;14.43;;;2.63;;
75620;SDS011;64574;48.506;-2.750;2024-02-26T09:15:02;11.13;;;2.15;;
75620;SDS011;64574;48.506;-2.750;2024-02-26T09:17:28;14.32;;;2.58;;
75620;SDS011;64574;48.506;-2.750;2024-02-26T09:19:54;14.23;;;2.30;;
75620;SDS011;64574;48.506;-2.750;2024-02-26T09:22:19;10.40;;;2.72;;
75620;SDS011;64574;48.506;-2.750;2024-02-26T09:24:45;25.77;;;3.38;;
75620;SDS011;64574;48.506;-2.750;2024-02-26T09:27:11;15.75;;;3.13;;
75620;SDS011;64574;48.506;-2.750;2024-02-26T09:29:37;18.98;;;2.72;;
75620;SDS011;64574;48.506;-2.750;2024-02-26T09:32:03;14.98;;;2.92;;
75620;SDS011;64574;48.506;-2.750;2024-02-26T09:34:29;16.13;;;2.90;;
75620;SDS011;64574;48.506;-2.750;2024-02-26T09:36:55;19.63;;;2.45;;
75620;SDS011;64574;48.506;-2.750;2024-02-26T09:39:21;13.45;;;2.50;;
75620;SDS011;64574;48.506;-2.750;2024-02-26T09:41:47;14.00;;;2.05;;
75620;SDS011;64574;48.506;-2.750;2024-02-26T09:44:15;13.10;;;2.40;;
75620;SDS011;64574;48.506;-2.750;2024-02-26T09:46:44;10.98;;;2.10;;
75620;SDS011;64574;48.506;-2.750;2024-02-26T09:49:10;11.55;;;1.83;;
75620;SDS011;64574;48.506;-2.750;2024-02-26T09:51:37;8.38;;;1.65;;
75620;SDS011;64574;48.506;-2.750;2024-02-26T09:54:03;14.43;;;2.63;;
75620;SDS011;64574;48.506;-2.750;2024-02-26T09:56:32;14.68;;;2.10;;
75620;SDS011;64574;48.506;-2.750;2024-02-26T09:58:58;13.65;;;2.28;;
75620;SDS011;64574;48.506;-2.750;2024-02-26T10:01:25;17.10;;;2.60;;
75620;SDS011;64574;48.506;-2.750;2024-02-26T10:03:54;10.15;;;2.03;;
75620;SDS011;64574;48.506;-2.750;2024-02-26T10:53:03;14.80;;;2.03;;
75620;SDS011;64574;48.506;-2.750;2024-02-26T10:55:32;17.40;;;2.67;;
75620;SDS011;64574;48.506;-2.750;2024-02-26T10:58:00;13.40;;;1.98;;
75620;SDS011;64574;48.506;-2.750;2024-02-26T11:00:27;13.80;;;2.28;;
75620;SDS011;64574;48.506;-2.750;2024-02-26T11:02:54;8.40;;;1.50;;
75620;SDS011;64574;48.506;-2.750;2024-02-26T11:05:23;13.27;;;1.90;;
75620;SDS011;64574;48.506;-2.750;2024-02-26T11:07:50;14.35;;;2.03;;
75620;SDS011;64574;48.506;-2.750;2024-02-26T11:10:17;15.05;;;2.20;;
75620;SDS011;64574;48.506;-2.750;2024-02-26T11:12:43;14.88;;;2.15;;
75620;SDS011;64574;48.506;-2.750;2024-02-26T11:15:10;20.38;;;2.05;;
75620;SDS011;64574;48.506;-2.750;2024-02-26T11:17:36;8.20;;;1.40;;
75620;SDS011;64574;48.506;-2.750;2024-02-26T11:20:03;10.10;;;1.70;;
75620;SDS011;64574;48.506;-2.750;2024-02-26T11:22:30;7.22;;;1.60;;
75620;SDS011;64574;48.506;-2.750;2024-02-26T11:24:57;9.93;;;2.35;;
75620;SDS011;64574;48.506;-2.750;2024-02-26T11:27:37;13.80;;;2.22;;
75620;SDS011;64574;48.506;-2.750;2024-02-26T11:30:10;6.85;;;1.77;;
75620;SDS011;64574;48.506;-2.750;2024-02-26T11:32:38;12.18;;;2.20;;
75620;SDS011;64574;48.506;-2.750;2024-02-26T11:35:06;11.13;;;1.88;;
75620;SDS011;64574;48.506;-2.750;2024-02-26T11:37:35;12.65;;;2.47;;
75620;SDS011;64574;48.506;-2.750;2024-02-26T11:40:01;10.73;;;2.53;;
75620;SDS011;64574;48.506;-2.750;2024-02-26T11:42:27;12.30;;;1.63;;
75620;SDS011;64574;48.506;-2.750;2024-02-26T11:44:55;12.32;;;2.20;;
75620;SDS011;64574;48.506;-2.750;2024-02-26T11:47:26;9.10;;;2.53;;
75620;SDS011;64574;48.506;-2.750;2024-02-26T11:49:52;8.77;;;1.75;;
75620;SDS011;64574;48.506;-2.750;2024-02-26T11:52:18;9.38;;;1.88;;
75620;SDS011;64574;48.506;-2.750;2024-02-26T11:59:54;10.85;;;2.30;;
75620;SDS011;64574;48.506;-2.750;2024-02-26T12:05:21;7.65;;;1.40;;
75620;SDS011;64574;48.506;-2.750;2024-02-26T12:07:55;9.80;;;1.80;;
75620;SDS011;64574;48.506;-2.750;2024-02-26T12:10:32;11.20;;;1.92;;
75620;SDS011;64574;48.506;-2.750;2024-02-26T12:13:07;10.30;;;2.00;;
75620;SDS011;64574;48.506;-2.750;2024-02-26T12:15:33;11.40;;;1.85;;
75620;SDS011;64574;48.506;-2.750;2024-02-26T12:18:03;13.27;;;2.20;;
75620;SDS011;64574;48.506;-2.750;2024-02-26T12:20:30;7.65;;;1.67;;
75620;SDS011;64574;48.506;-2.750;2024-02-26T12:22:57;11.60;;;1.77;;
75620;SDS011;64574;48.506;-2.750;2024-02-26T12:25:23;15.02;;;2.33;;
75620;SDS011;64574;48.506;-2.750;2024-02-26T12:27:51;9.88;;;1.60;;
75620;SDS011;64574;48.506;-2.750;2024-02-26T12:30:18;12.95;;;2.00;;
75620;SDS011;64574;48.506;-2.750;2024-02-26T12:32:44;12.40;;;1.88;;
75620;SDS011;64574;48.506;-2.750;2024-02-26T12:35:11;10.48;;;2.10;;
75620;SDS011;64574;48.506;-2.750;2024-02-26T12:37:37;11.10;;;2.20;;
75620;SDS011;64574;48.506;-2.750;2024-02-26T12:40:08;12.88;;;2.00;;
75620;SDS011;64574;48.506;-2.750;2024-02-26T12:42:35;13.80;;;1.92;;
75620;SDS011;64574;48.506;-2.750;2024-02-26T12:45:08;8.65;;;1.90;;
75620;SDS011;64574;48.506;-2.750;2024-02-26T12:47:39;16.77;;;2.38;;
75620;SDS011;64574;48.506;-2.750;2024-02-26T12:50:06;7.45;;;1.55;;
75620;SDS011;64574;48.506;-2.750;2024-02-26T12:52:33;10.80;;;2.08;;
75620;SDS011;64574;48.506;-2.750;2024-02-26T12:55:01;10.55;;;1.55;;
75620;SDS011;64574;48.506;-2.750;2024-02-26T12:57:31;8.02;;;1.40;;
75620;SDS011;64574;48.506;-2.750;2024-02-26T13:02:26;7.25;;;1.38;;
75620;SDS011;64574;48.506;-2.750;2024-02-26T13:04:52;10.27;;;1.75;;
75620;SDS011;64574;48.506;-2.750;2024-02-26T13:07:20;7.97;;;1.27;;
75620;SDS011;64574;48.506;-2.750;2024-02-26T13:09:46;13.73;;;1.80;;
75620;SDS011;64574;48.506;-2.750;2024-02-26T13:12:12;11.90;;;1.60;;
75620;SDS011;64574;48.506;-2.750;2024-02-26T13:14:39;5.75;;;1.20;;
75620;SDS011;64574;48.506;-2.750;2024-02-26T13:17:04;12.70;;;2.00;;
75620;SDS011;64574;48.506;-2.750;2024-02-26T13:19:30;9.55;;;1.40;;
75620;SDS011;64574;48.506;-2.750;2024-02-26T13:21:56;8.50;;;1.80;;
75620;SDS011;64574;48.506;-2.750;2024-02-26T13:24:29;14.82;;;1.77;;
75620;SDS011;64574;48.506;-2.750;2024-02-26T13:26:56;16.42;;;2.53;;
75620;SDS011;64574;48.506;-2.750;2024-02-26T13:29:22;10.82;;;2.25;;
75620;SDS011;64574;48.506;-2.750;2024-02-26T13:31:47;14.45;;;2.47;;
75620;SDS011;64574;48.506;-2.750;2024-02-26T13:34:27;8.73;;;2.20;;
75620;SDS011;64574;48.506;-2.750;2024-02-26T13:36:55;8.32;;;1.13;;
75620;SDS011;64574;48.506;-2.750;2024-02-26T13:39:25;8.95;;;2.17;;
75620;SDS011;64574;48.506;-2.750;2024-02-26T13:41:52;8.77;;;1.67;;
75620;SDS011;64574;48.506;-2.750;2024-02-26T13:44:19;11.38;;;1.60;;
75620;SDS011;64574;48.506;-2.750;2024-02-26T13:46:45;8.18;;;1.73;;
75620;SDS011;64574;48.506;-2.750;2024-02-26T13:49:11;8.82;;;1.67;;
75620;SDS011;64574;48.506;-2.750;2024-02-26T13:51:38;8.00;;;1.80;;
75620;SDS011;64574;48.506;-2.750;2024-02-26T13:54:04;14.63;;;1.50;;
75620;SDS011;64574;48.506;-2.750;2024-02-26T13:56:30;8.05;;;1.80;;
75620;SDS011;64574;48.506;-2.750;2024-02-26T13:58:57;8.13;;;1.60;;
75620;SDS011;64574;48.506;-2.750;2024-02-26T14:01:23;10.50;;;1.83;;
75620;SDS011;64574;48.506;-2.750;2024-02-26T14:03:49;10.35;;;1.60;;
75620;SDS011;64574;48.506;-2.750;2024-02-26T14:06:15;7.25;;;1.70;;
75620;SDS011;64574;48.506;-2.750;2024-02-26T14:08:41;6.53;;;1.52;;
75620;SDS011;64574;48.506;-2.750;2024-02-26T14:11:08;7.05;;;1.42;;
75620;SDS011;64574;48.506;-2.750;2024-02-26T14:13:33;6.70;;;1.52;;
75620;SDS011;64574;48.506;-2.750;2024-02-26T14:15:59;8.02;;;3.05;;
75620;SDS011;64574;48.506;-2.750;2024-02-26T14:18:25;9.10;;;1.60;;
75620;SDS011;64574;48.506;-2.750;2024-02-26T14:20:52;10.18;;;1.58;;
75620;SDS011;64574;48.506;-2.750;2024-02-26T14:23:17;10.05;;;1.95;;
75620;SDS011;64574;48.506;-2.750;2024-02-26T14:25:43;11.60;;;1.92;;
75620;SDS011;64574;48.506;-2.750;2024-02-26T14:28:09;10.38;;;1.80;;
75620;SDS011;64574;48.506;-2.750;2024-02-26T14:30:34;12.18;;;1.50;;
75620;SDS011;64574;48.506;-2.750;2024-02-26T14:33:00;10.88;;;1.40;;
75620;SDS011;64574;48.506;-2.750;2024-02-26T14:35:25;7.00;;;1.20;;
75620;SDS011;64574;48.506;-2.750;2024-02-26T14:37:51;8.15;;;1.55;;
75620;SDS011;64574;48.506;-2.750;2024-02-26T14:40:17;9.48;;;1.58;;
75620;SDS011;64574;48.506;-2.750;2024-02-26T14:42:43;10.10;;;1.75;;
75620;SDS011;64574;48.506;-2.750;2024-02-26T14:45:09;7.65;;;1.20;;
75620;SDS011;64574;48.506;-2.750;2024-02-26T14:47:36;6.05;;;1.23;;
75620;SDS011;64574;48.506;-2.750;2024-02-26T14:50:02;8.27;;;1.30;;
75620;SDS011;64574;48.506;-2.750;2024-02-26T14:52:27;9.90;;;1.40;;
75620;SDS011;64574;48.506;-2.750;2024-02-26T14:54:53;6.53;;;1.20;;
75620;SDS011;64574;48.506;-2.750;2024-02-26T14:57:19;7.93;;;1.45;;
75620;SDS011;64574;48.506;-2.750;2024-02-26T14:59:44;8.52;;;1.23;;
75620;SDS011;64574;48.506;-2.750;2024-02-26T15:02:10;9.82;;;1.98;;
75620;SDS011;64574;48.506;-2.750;2024-02-26T15:04:36;10.25;;;1.77;;
75620;SDS011;64574;48.506;-2.750;2024-02-26T15:07:02;6.72;;;1.35;;
75620;SDS011;64574;48.506;-2.750;2024-02-26T15:09:28;6.47;;;1.02;;
75620;SDS011;64574;48.506;-2.750;2024-02-26T15:11:54;4.90;;;1.70;;
75620;SDS011;64574;48.506;-2.750;2024-02-26T15:14:22;7.13;;;1.20;;
75620;SDS011;64574;48.506;-2.750;2024-02-26T15:16:48;9.77;;;1.42;;
75620;SDS011;64574;48.506;-2.750;2024-02-26T15:19:14;8.95;;;1.90;;
75620;SDS011;64574;48.506;-2.750;2024-02-26T15:21:46;5.78;;;1.80;;
75620;SDS011;64574;48.506;-2.750;2024-02-26T15:24:12;8.43;;;1.25;;
75620;SDS011;64574;48.506;-2.750;2024-02-26T15:26:41;5.20;;;1.25;;
75620;SDS011;64574;48.506;-2.750;2024-02-26T15:29:07;6.18;;;1.40;;
75620;SDS011;64574;48.506;-2.750;2024-02-26T15:31:36;7.53;;;1.38;;
75620;SDS011;64574;48.506;-2.750;2024-02-26T15:34:03;3.60;;;1.00;;
75620;SDS011;64574;48.506;-2.750;2024-02-26T15:36:28;5.95;;;1.30;;